createdAt,value
2023-05-14T00:00:24.732Z,10.75
2023-05-14T00:02:52.095Z,10.79
2023-05-14T00:05:18.922Z,10.91
2023-05-14T00:07:45.856Z,10.88
2023-05-14T00:10:12.826Z,10.94
2023-05-14T00:12:39.793Z,10.59
2023-05-14T00:15:07.379Z,10.73
2023-05-14T00:17:34.372Z,10.75
2023-05-14T00:20:01.568Z,10.64
2023-05-14T00:22:28.451Z,10.66
2023-05-14T00:24:55.551Z,10.57
2023-05-14T00:27:22.475Z,10.56
2023-05-14T00:29:49.375Z,10.51
2023-05-14T00:32:16.308Z,10.56
2023-05-14T00:34:43.529Z,10.48
2023-05-14T00:37:10.538Z,10.70
2023-05-14T00:39:37.482Z,10.63
2023-05-14T00:42:04.737Z,10.59
2023-05-14T00:44:31.557Z,10.43
2023-05-14T00:46:59.688Z,10.47
2023-05-14T00:49:27.431Z,10.39
2023-05-14T00:51:57.406Z,10.30
2023-05-14T00:54:24.388Z,10.27
2023-05-14T00:56:51.446Z,10.11
2023-05-14T00:59:18.133Z,10.06
2023-05-14T01:01:45.084Z,10.08
2023-05-14T01:04:12.796Z,9.87
2023-05-14T01:07:04.054Z,9.79
2023-05-14T01:09:44.904Z,9.84
2023-05-14T01:12:27.308Z,9.62
2023-05-14T01:15:05.639Z,9.67
2023-05-14T01:17:37.932Z,9.58
2023-05-14T01:20:05.506Z,9.43
2023-05-14T01:22:32.507Z,9.42
2023-05-14T01:24:59.442Z,9.50
2023-05-14T01:27:35.460Z,9.19
2023-05-14T01:30:47.461Z,9.21
2023-05-14T01:33:19.560Z,9.42
2023-05-14T01:35:46.840Z,9.21
2023-05-14T01:38:18.351Z,9.11
2023-05-14T01:40:46.858Z,9.29
2023-05-14T01:43:14.954Z,8.89
2023-05-14T01:45:42.682Z,8.81
2023-05-14T01:48:09.938Z,8.93
2023-05-14T01:50:37.035Z,9.10
2023-05-14T01:53:03.715Z,9.32
2023-05-14T01:55:30.758Z,9.53
2023-05-14T01:58:00.458Z,9.35
2023-05-14T02:00:27.668Z,9.32
2023-05-14T02:02:54.565Z,9.42
2023-05-14T02:05:28.838Z,9.37
2023-05-14T02:07:55.868Z,9.45
2023-05-14T02:10:23.015Z,9.63
2023-05-14T02:12:50.195Z,9.36
2023-05-14T02:15:17.199Z,9.35
2023-05-14T02:17:44.161Z,9.22
2023-05-14T02:20:11.645Z,9.27
2023-05-14T02:22:38.724Z,9.16
2023-05-14T02:25:06.241Z,9.29
2023-05-14T02:27:33.186Z,9.26
2023-05-14T02:30:01.047Z,9.25
2023-05-14T02:32:28.777Z,9.31
2023-05-14T02:34:55.662Z,9.20
2023-05-14T02:37:22.682Z,8.96
2023-05-14T02:39:49.695Z,8.90
2023-05-14T02:42:16.515Z,9.01
2023-05-14T02:44:43.413Z,8.89
2023-05-14T02:47:10.363Z,8.84
2023-05-14T02:49:37.360Z,9.02
2023-05-14T02:52:04.351Z,9.04
2023-05-14T02:54:31.237Z,8.88
2023-05-14T02:56:58.162Z,8.93
2023-05-14T02:59:25.357Z,9.03
2023-05-14T03:01:54.696Z,8.88
2023-05-14T03:04:21.912Z,9.21
2023-05-14T03:06:48.790Z,9.26
2023-05-14T03:09:15.641Z,9.15
2023-05-14T03:11:42.712Z,9.15
2023-05-14T03:14:09.625Z,9.20
2023-05-14T03:16:36.646Z,9.42
2023-05-14T03:19:04.279Z,9.41
2023-05-14T03:21:32.081Z,9.56
2023-05-14T03:23:59.070Z,9.49
2023-05-14T03:26:26.024Z,9.48
2023-05-14T03:28:52.961Z,9.42
2023-05-14T03:31:19.995Z,9.49
2023-05-14T03:33:47.644Z,9.03
2023-05-14T03:36:14.582Z,9.11
2023-05-14T03:38:41.356Z,8.84
2023-05-14T03:41:08.565Z,8.78
2023-05-14T03:43:35.739Z,9.05
2023-05-14T03:46:02.777Z,9.11
2023-05-14T03:48:29.815Z,9.28
2023-05-14T03:50:56.837Z,9.58
2023-05-14T03:53:23.925Z,9.31
2023-05-14T03:55:51.044Z,9.64
2023-05-14T03:58:18.054Z,9.88
2023-05-14T04:00:45.212Z,10.08
2023-05-14T04:03:12.302Z,9.98
2023-05-14T04:05:39.500Z,9.97
2023-05-14T04:08:06.637Z,9.89
2023-05-14T04:10:33.570Z,10.04
2023-05-14T04:13:00.573Z,10.33
2023-05-14T04:15:27.639Z,10.33
2023-05-14T04:17:54.528Z,10.52
2023-05-14T04:20:21.350Z,10.65
2023-05-14T04:22:48.343Z,11.11
2023-05-14T04:25:15.198Z,11.48
2023-05-14T04:27:42.172Z,12.44
2023-05-14T04:30:09.791Z,13.43
2023-05-14T04:32:37.004Z,14.24
2023-05-14T04:35:05.002Z,14.82
2023-05-14T04:37:32.263Z,16.13
2023-05-14T04:39:59.258Z,17.21
2023-05-14T04:42:26.181Z,18.36
2023-05-14T04:44:53.110Z,19.21
2023-05-14T04:47:21.290Z,19.57
2023-05-14T04:49:48.492Z,20.02
2023-05-14T04:52:15.677Z,20.70
2023-05-14T04:54:42.614Z,20.50
2023-05-14T04:57:09.779Z,21.03
2023-05-14T04:59:36.965Z,21.95
2023-05-14T05:02:03.786Z,22.36
2023-05-14T05:04:30.848Z,21.52
2023-05-14T05:06:58.053Z,22.68
2023-05-14T05:09:24.889Z,22.25
2023-05-14T05:11:51.958Z,22.76
2023-05-14T05:14:18.878Z,23.83
2023-05-14T05:16:46.210Z,23.52
2023-05-14T05:19:13.514Z,23.36
2023-05-14T05:21:41.149Z,23.35
2023-05-14T05:24:11.313Z,24.54
2023-05-14T05:26:38.546Z,25.30
2023-05-14T05:29:06.251Z,26.19
2023-05-14T05:31:33.357Z,26.06
2023-05-14T05:34:00.917Z,26.21
2023-05-14T05:36:27.797Z,25.55
2023-05-14T05:38:55.611Z,24.87
2023-05-14T05:41:22.911Z,24.17
2023-05-14T05:43:49.817Z,24.74
2023-05-14T05:46:16.801Z,24.63
2023-05-14T05:48:46.677Z,24.25
2023-05-14T05:51:14.677Z,23.57
2023-05-14T05:53:41.713Z,23.65
2023-05-14T05:56:08.665Z,23.42
2023-05-14T05:58:35.782Z,23.44
2023-05-14T06:01:02.920Z,24.82
2023-05-14T06:03:29.977Z,24.65
2023-05-14T06:05:56.810Z,25.48
2023-05-14T06:08:23.638Z,26.35
2023-05-14T06:10:50.501Z,25.94
2023-05-14T06:13:17.530Z,24.98
2023-05-14T06:15:44.602Z,24.51
2023-05-14T06:18:11.757Z,24.16
2023-05-14T06:20:38.914Z,24.15
2023-05-14T06:23:06.233Z,24.56
2023-05-14T06:25:33.048Z,25.62
2023-05-14T06:28:00.210Z,26.25
2023-05-14T06:30:27.069Z,27.36
2023-05-14T06:32:54.031Z,28.22
2023-05-14T06:35:21.104Z,29.15
2023-05-14T06:37:47.955Z,29.22
2023-05-14T06:40:17.529Z,29.67
2023-05-14T06:42:44.646Z,29.54
2023-05-14T06:45:11.895Z,28.70
2023-05-14T06:47:38.752Z,29.18
2023-05-14T06:50:06.120Z,29.43
2023-05-14T06:52:33.290Z,30.86
2023-05-14T06:55:00.227Z,32.21
2023-05-14T06:57:27.605Z,33.43
2023-05-14T06:59:54.538Z,31.06
2023-05-14T07:02:22.437Z,30.43
2023-05-14T07:04:49.393Z,30.97
2023-05-14T07:07:20.746Z,33.12
2023-05-14T07:09:48.561Z,34.46
2023-05-14T07:12:15.545Z,34.36
2023-05-14T07:14:42.553Z,36.14
2023-05-14T07:17:09.508Z,36.25
2023-05-14T07:19:36.552Z,36.61
2023-05-14T07:22:03.702Z,35.35
2023-05-14T07:24:30.501Z,34.63
2023-05-14T07:26:57.852Z,34.03
2023-05-14T07:29:26.750Z,34.34
2023-05-14T07:31:53.788Z,34.83
2023-05-14T07:34:21.234Z,34.32
2023-05-14T07:36:48.372Z,34.98
2023-05-14T07:39:15.298Z,34.76
2023-05-14T07:41:42.212Z,33.41
2023-05-14T07:44:09.326Z,31.05
2023-05-14T07:46:37.339Z,29.14
2023-05-14T07:49:04.358Z,29.86
2023-05-14T07:51:33.521Z,31.08
2023-05-14T07:54:00.797Z,31.67
2023-05-14T07:56:27.684Z,32.88
2023-05-14T07:58:54.807Z,33.48
2023-05-14T08:01:22.040Z,34.25
2023-05-14T08:03:49.322Z,35.31
2023-05-14T08:06:16.133Z,34.53
2023-05-14T08:08:43.160Z,34.13
2023-05-14T08:11:10.241Z,34.95
2023-05-14T08:13:37.145Z,36.02
2023-05-14T08:16:04.317Z,34.58
2023-05-14T08:18:31.255Z,32.65
2023-05-14T08:20:58.160Z,33.68
2023-05-14T08:23:25.227Z,34.74
2023-05-14T08:25:52.439Z,33.76
2023-05-14T08:28:19.422Z,33.78
2023-05-14T08:30:46.321Z,36.91
2023-05-14T08:33:13.402Z,36.50
2023-05-14T08:35:40.365Z,36.14
2023-05-14T08:38:07.198Z,36.78
2023-05-14T08:40:34.202Z,37.54
2023-05-14T08:43:02.739Z,39.47
2023-05-14T08:45:34.212Z,38.54
2023-05-14T08:48:05.342Z,35.60
2023-05-14T08:50:32.531Z,35.14
2023-05-14T08:52:59.733Z,35.65
2023-05-14T08:55:28.596Z,33.65
2023-05-14T08:57:56.561Z,33.11
2023-05-14T09:00:24.105Z,37.54
2023-05-14T09:02:51.809Z,37.44
2023-05-14T09:05:19.788Z,35.80
2023-05-14T09:07:47.320Z,36.21
2023-05-14T09:10:15.632Z,37.85
2023-05-14T09:12:42.601Z,37.60
2023-05-14T09:15:09.900Z,37.22
2023-05-14T09:17:36.904Z,33.01
2023-05-14T09:20:05.006Z,32.68
2023-05-14T09:22:32.627Z,33.91
2023-05-14T09:25:04.889Z,35.95
2023-05-14T09:27:33.633Z,35.93
2023-05-14T09:30:11.666Z,38.62
2023-05-14T09:32:40.525Z,38.75
2023-05-14T09:35:17.801Z,37.32
2023-05-14T09:37:50.112Z,40.47
2023-05-14T09:40:18.878Z,38.89
2023-05-14T09:42:46.198Z,37.18
2023-05-14T09:45:13.687Z,39.74
2023-05-14T09:47:40.917Z,39.05
2023-05-14T09:50:08.780Z,40.45
2023-05-14T09:52:36.011Z,40.03
2023-05-14T09:55:03.413Z,35.75
2023-05-14T09:57:30.298Z,38.54
2023-05-14T09:59:57.352Z,41.10
2023-05-14T10:02:37.873Z,40.59
2023-05-14T10:05:07.022Z,38.08
2023-05-14T10:07:47.731Z,35.40
2023-05-14T10:10:18.958Z,34.22
2023-05-14T10:12:59.157Z,35.41
2023-05-14T10:15:49.401Z,35.25
2023-05-14T10:18:24.417Z,35.21
2023-05-14T10:21:04.276Z,38.33
2023-05-14T10:23:31.307Z,42.43
2023-05-14T10:26:02.166Z,39.33
2023-05-14T10:28:29.150Z,42.71
2023-05-14T10:30:56.182Z,45.83
2023-05-14T10:33:23.383Z,47.51
2023-05-14T10:35:57.579Z,44.15
2023-05-14T10:38:35.708Z,40.43
2023-05-14T10:41:10.381Z,35.80
2023-05-14T10:43:39.912Z,33.28
2023-05-14T10:46:08.510Z,30.77
2023-05-14T10:48:37.811Z,27.84
2023-05-14T10:51:07.931Z,31.84
2023-05-14T10:53:37.226Z,38.14
2023-05-14T10:56:09.276Z,38.38
2023-05-14T10:58:43.163Z,35.41
2023-05-14T11:01:13.026Z,32.71
2023-05-14T11:03:47.348Z,30.03
2023-05-14T11:06:16.517Z,34.04
2023-05-14T11:08:44.795Z,40.42
2023-05-14T11:11:11.926Z,42.23
2023-05-14T11:13:38.960Z,37.24
2023-05-14T11:18:41.182Z,31.03
2023-05-14T11:21:08.087Z,37.03
2023-05-14T11:23:35.130Z,38.59
2023-05-14T11:26:02.311Z,39.24
2023-05-14T11:28:30.173Z,37.52
2023-05-14T11:30:57.397Z,32.97
2023-05-14T11:33:24.167Z,29.63
2023-05-14T11:35:52.280Z,27.68
2023-05-14T11:38:21.558Z,26.58
2023-05-14T11:40:54.061Z,25.53
2023-05-14T11:43:23.894Z,25.51
2023-05-14T11:45:52.753Z,24.24
2023-05-14T11:48:20.880Z,24.23
2023-05-14T11:50:48.932Z,24.21
2023-05-14T11:53:27.110Z,24.53
2023-05-14T11:55:55.407Z,26.60
2023-05-14T11:58:22.687Z,26.07
2023-05-14T12:00:53.958Z,24.85
2023-05-14T12:03:26.123Z,24.66
2023-05-14T12:06:00.336Z,24.72
2023-05-14T12:08:29.704Z,24.38
2023-05-14T12:10:58.432Z,24.41
2023-05-14T12:13:30.472Z,25.22
2023-05-14T12:16:00.524Z,25.31
2023-05-14T12:18:29.651Z,25.11
2023-05-14T12:21:02.021Z,25.11
2023-05-14T12:23:32.647Z,25.29
2023-05-14T12:26:09.507Z,25.40
2023-05-14T12:28:43.746Z,25.69
2023-05-14T12:31:10.884Z,26.23
2023-05-14T12:33:37.832Z,26.16
2023-05-14T12:36:20.557Z,26.49
2023-05-14T12:38:49.246Z,26.04
2023-05-14T12:41:16.662Z,25.92
2023-05-14T12:43:44.577Z,25.97
2023-05-14T12:46:11.606Z,25.98
2023-05-14T12:48:38.573Z,25.01
2023-05-14T12:51:05.774Z,24.99
2023-05-14T12:53:32.847Z,24.86
2023-05-14T12:55:59.820Z,24.17
2023-05-14T12:58:26.754Z,24.51
2023-05-14T13:00:56.090Z,25.07
2023-05-14T13:03:23.552Z,25.66
2023-05-14T13:05:52.328Z,25.59
2023-05-14T13:08:21.655Z,25.08
2023-05-14T13:10:48.743Z,24.95
2023-05-14T13:13:16.552Z,24.87
2023-05-14T13:15:43.707Z,24.46
2023-05-14T13:18:10.744Z,23.91
2023-05-14T13:20:37.725Z,23.46
2023-05-14T13:23:05.159Z,23.29
2023-05-14T13:25:32.098Z,23.22
2023-05-14T13:27:59.170Z,23.50
2023-05-14T13:30:26.199Z,23.88
2023-05-14T13:32:53.213Z,23.58
2023-05-14T13:35:20.098Z,23.02
2023-05-14T13:37:47.706Z,23.06
2023-05-14T13:40:14.699Z,23.35
2023-05-14T13:42:41.595Z,23.23
2023-05-14T13:45:09.482Z,23.72
2023-05-14T13:47:36.418Z,24.14
2023-05-14T13:50:04.002Z,24.10
2023-05-14T13:52:31.281Z,24.21
2023-05-14T13:54:58.326Z,24.09
2023-05-14T13:57:25.189Z,23.65
2023-05-14T13:59:59.380Z,23.96
2023-05-14T14:02:26.452Z,24.02
2023-05-14T14:04:53.306Z,24.22
2023-05-14T14:07:21.441Z,23.92
2023-05-14T14:09:48.516Z,24.47
2023-05-14T14:12:15.588Z,25.01
2023-05-14T14:14:42.797Z,25.10
2023-05-14T14:17:09.869Z,24.10
2023-05-14T14:19:36.724Z,23.99
2023-05-14T14:22:04.023Z,24.19
2023-05-14T14:24:31.026Z,23.47
2023-05-14T14:26:58.235Z,23.11
2023-05-14T14:29:25.130Z,22.14
2023-05-14T14:31:52.200Z,21.80
2023-05-14T14:34:19.252Z,21.19
2023-05-14T14:36:46.316Z,20.99
2023-05-14T14:39:13.292Z,21.14
2023-05-14T14:41:40.325Z,21.62
2023-05-14T14:44:07.326Z,21.71
2023-05-14T14:46:34.367Z,21.48
2023-05-14T14:49:01.499Z,21.77
2023-05-14T14:51:28.625Z,22.04
2023-05-14T14:53:55.907Z,22.29
2023-05-14T14:56:22.984Z,22.29
2023-05-14T14:58:49.854Z,22.34
2023-05-14T15:01:17.182Z,22.50
2023-05-14T15:03:45.913Z,22.56
2023-05-14T15:06:13.010Z,22.79
2023-05-14T15:08:39.966Z,22.66
2023-05-14T15:11:07.813Z,22.72
2023-05-14T15:13:35.222Z,22.60
2023-05-14T15:16:02.595Z,22.43
2023-05-14T15:18:29.601Z,22.05
2023-05-14T15:20:56.951Z,22.28
2023-05-14T15:23:23.779Z,22.61
2023-05-14T15:25:51.123Z,22.65
2023-05-14T15:28:18.057Z,22.33
2023-05-14T15:30:45.040Z,21.63
2023-05-14T15:33:12.365Z,21.26
2023-05-14T15:35:39.440Z,20.78
2023-05-14T15:38:07.229Z,20.65
2023-05-14T15:40:35.386Z,20.86
2023-05-14T15:43:02.240Z,21.27
2023-05-14T15:45:29.259Z,21.65
2023-05-14T15:47:56.698Z,22.02
2023-05-14T15:50:23.930Z,21.96
2023-05-14T15:52:51.248Z,21.73
2023-05-14T15:55:18.487Z,21.63
2023-05-14T15:57:45.365Z,21.66
2023-05-14T16:00:12.647Z,21.71
2023-05-14T16:02:40.001Z,21.70
2023-05-14T16:05:08.616Z,21.69
2023-05-14T16:07:36.466Z,21.66
2023-05-14T16:10:04.070Z,22.00
2023-05-14T16:12:31.111Z,22.37
2023-05-14T16:14:58.021Z,22.21
2023-05-14T16:17:26.886Z,22.14
2023-05-14T16:19:56.305Z,21.81
2023-05-14T16:22:23.748Z,21.64
2023-05-14T16:24:50.944Z,21.45
2023-05-14T16:27:19.336Z,21.40
2023-05-14T16:29:46.653Z,21.39
2023-05-14T16:32:13.950Z,21.44
2023-05-14T16:34:40.989Z,21.17
2023-05-14T16:37:08.722Z,21.22
2023-05-14T16:39:36.352Z,20.92
2023-05-14T16:42:03.478Z,20.87
2023-05-14T16:44:30.381Z,20.99
2023-05-14T16:46:57.537Z,21.01
2023-05-14T16:49:24.636Z,20.93
2023-05-14T16:51:51.659Z,20.97
2023-05-14T16:54:18.665Z,21.06
2023-05-14T16:56:48.598Z,21.26
2023-05-14T16:59:16.901Z,21.25
2023-05-14T17:01:44.916Z,21.27
2023-05-14T17:04:12.006Z,21.06
2023-05-14T17:06:38.966Z,21.01
2023-05-14T17:09:07.038Z,21.38
2023-05-14T17:11:33.910Z,21.83
2023-05-14T17:14:00.916Z,21.91
2023-05-14T17:16:27.977Z,22.31
2023-05-14T17:18:55.086Z,22.63
2023-05-14T17:21:24.877Z,22.44
2023-05-14T17:23:52.035Z,22.32
2023-05-14T17:26:19.039Z,21.99
2023-05-14T17:28:46.031Z,21.73
2023-05-14T17:31:12.972Z,21.19
2023-05-14T17:33:39.892Z,20.85
2023-05-14T17:36:07.248Z,20.83
2023-05-14T17:38:34.992Z,20.27
2023-05-14T17:41:02.235Z,19.87
2023-05-14T17:43:29.323Z,19.72
2023-05-14T17:45:56.325Z,19.46
2023-05-14T17:48:24.301Z,19.32
2023-05-14T17:50:52.145Z,19.18
2023-05-14T17:53:19.587Z,19.13
2023-05-14T17:55:46.752Z,19.08
2023-05-14T17:58:15.678Z,19.08
2023-05-14T18:00:44.008Z,19.01
2023-05-14T18:03:11.880Z,18.77
2023-05-14T18:05:39.026Z,18.70
2023-05-14T18:08:06.122Z,18.38
2023-05-14T18:10:33.234Z,18.44
2023-05-14T18:13:00.272Z,18.14
2023-05-14T18:15:27.622Z,18.00
2023-05-14T18:17:55.016Z,18.01
2023-05-14T18:20:22.164Z,18.02
2023-05-14T18:22:50.811Z,18.03
2023-05-14T18:25:17.928Z,18.10
2023-05-14T18:27:45.851Z,17.91
2023-05-14T18:30:14.873Z,17.72
2023-05-14T18:32:43.837Z,17.57
2023-05-14T18:35:13.100Z,17.50
2023-05-14T18:37:41.149Z,17.50
2023-05-14T18:40:09.048Z,17.34
2023-05-14T18:42:36.046Z,17.10
2023-05-14T18:45:04.363Z,17.04
2023-05-14T18:47:31.889Z,17.04
2023-05-14T18:50:00.649Z,16.79
2023-05-14T18:52:30.447Z,16.73
2023-05-14T18:54:57.484Z,16.64
2023-05-14T18:57:27.091Z,16.44
2023-05-14T18:59:54.231Z,16.15
2023-05-14T19:02:21.498Z,15.91
2023-05-14T19:04:52.702Z,15.85
2023-05-14T19:07:21.065Z,15.97
2023-05-14T19:09:51.022Z,15.64
2023-05-14T19:12:18.051Z,15.59
2023-05-14T19:14:44.910Z,15.44
2023-05-14T19:17:12.143Z,15.47
2023-05-14T19:19:40.674Z,15.29
2023-05-14T19:22:07.564Z,15.19
2023-05-14T19:24:34.590Z,15.14
2023-05-14T19:27:01.624Z,14.95
2023-05-14T19:29:28.754Z,15.12
2023-05-14T19:31:55.729Z,14.90
2023-05-14T19:34:22.762Z,14.74
2023-05-14T19:36:50.293Z,14.63
2023-05-14T19:39:17.462Z,14.60
2023-05-14T19:41:44.484Z,14.54
2023-05-14T19:44:11.297Z,14.48
2023-05-14T19:46:38.270Z,14.41
2023-05-14T19:49:05.370Z,14.44
2023-05-14T19:51:32.439Z,14.35
2023-05-14T19:53:59.264Z,14.31
2023-05-14T19:56:27.279Z,14.17
2023-05-14T19:58:54.501Z,14.13
2023-05-14T20:01:21.673Z,14.06
2023-05-14T20:03:48.999Z,13.90
2023-05-14T20:06:17.690Z,13.87
2023-05-14T20:08:47.561Z,13.81
2023-05-14T20:11:15.912Z,13.82
2023-05-14T20:13:43.019Z,13.84
2023-05-14T20:16:10.146Z,13.82
2023-05-14T20:18:36.970Z,14.03
2023-05-14T20:21:04.171Z,14.25
2023-05-14T20:23:31.203Z,14.32
2023-05-14T20:25:58.148Z,14.32
2023-05-14T20:28:25.105Z,14.49
2023-05-14T20:30:52.561Z,14.34
2023-05-14T20:33:19.571Z,14.31
2023-05-14T20:35:46.489Z,14.20
2023-05-14T20:38:13.606Z,14.10
2023-05-14T20:40:40.904Z,13.86
2023-05-14T20:43:08.091Z,13.92
2023-05-14T20:45:35.009Z,13.86
2023-05-14T20:48:02.111Z,13.78
2023-05-14T20:50:29.305Z,13.67
2023-05-14T20:52:56.132Z,13.62
2023-05-14T20:55:23.547Z,13.69
2023-05-14T20:57:50.923Z,13.69
2023-05-14T21:00:18.154Z,13.64
2023-05-14T21:02:45.525Z,13.65
2023-05-14T21:05:14.187Z,13.68
2023-05-14T21:07:41.180Z,13.62
2023-05-14T21:10:09.855Z,13.66
2023-05-14T21:12:37.424Z,13.61
2023-05-14T21:15:04.907Z,13.73
2023-05-14T21:17:32.029Z,13.68
2023-05-14T21:19:58.848Z,13.49
2023-05-14T21:22:27.310Z,13.52
2023-05-14T21:24:55.911Z,13.43
2023-05-14T21:27:23.170Z,13.26
2023-05-14T21:29:50.321Z,13.22
2023-05-14T21:32:17.372Z,13.11
2023-05-14T21:34:44.747Z,13.11
2023-05-14T21:37:11.876Z,13.08
2023-05-14T21:39:38.843Z,13.05
2023-05-14T21:42:05.990Z,13.07
2023-05-14T21:44:32.963Z,13.07
2023-05-14T21:46:59.886Z,12.89
2023-05-14T21:49:26.844Z,12.81
2023-05-14T21:51:54.806Z,12.68
2023-05-14T21:54:21.794Z,12.41
2023-05-14T21:56:49.251Z,12.95
2023-05-14T21:59:16.135Z,12.74
2023-05-14T22:04:14.455Z,12.54
2023-05-14T22:06:41.471Z,12.32
2023-05-14T22:09:11.627Z,12.41
2023-05-14T22:11:38.498Z,12.28
2023-05-14T22:14:05.328Z,12.08
2023-05-14T22:16:33.452Z,12.28
2023-05-14T22:19:00.390Z,12.37
2023-05-14T22:21:30.093Z,12.00
2023-05-14T22:23:57.178Z,12.07
2023-05-14T22:26:23.991Z,12.20
2023-05-14T22:28:50.936Z,12.27
2023-05-14T22:31:17.857Z,11.92
2023-05-14T22:33:44.757Z,11.69
2023-05-14T22:36:11.650Z,11.68
2023-05-14T22:38:39.316Z,11.70
2023-05-14T22:41:07.312Z,11.57
2023-05-14T22:43:34.154Z,11.68
2023-05-14T22:46:01.259Z,11.51
2023-05-14T22:48:28.079Z,11.49
2023-05-14T22:50:54.967Z,11.71
2023-05-14T22:53:21.652Z,11.88
2023-05-14T22:55:48.702Z,11.77
2023-05-14T22:58:15.685Z,11.79
2023-05-14T23:00:42.564Z,11.72
2023-05-14T23:03:09.411Z,11.63
2023-05-14T23:05:36.189Z,11.24
2023-05-14T23:08:02.913Z,11.19
2023-05-14T23:10:29.867Z,11.09
2023-05-14T23:12:59.354Z,11.10
2023-05-14T23:15:27.147Z,11.01
2023-05-14T23:17:54.409Z,10.76
2023-05-14T23:20:21.858Z,11.17
2023-05-14T23:22:48.841Z,10.89
2023-05-14T23:25:15.794Z,11.01
2023-05-14T23:27:42.750Z,10.97
2023-05-14T23:30:10.238Z,11.04
2023-05-14T23:32:37.198Z,10.58
2023-05-14T23:35:04.424Z,10.55
2023-05-14T23:37:31.655Z,10.82
2023-05-14T23:39:58.626Z,10.68
2023-05-14T23:42:25.689Z,10.49
2023-05-14T23:44:52.546Z,10.35
2023-05-14T23:47:19.478Z,10.65
2023-05-14T23:49:46.321Z,10.79
2023-05-14T23:52:13.167Z,10.41
2023-05-14T23:54:40.129Z,10.59
2023-05-14T23:57:07.075Z,10.27
2023-05-14T23:59:33.913Z,10.29
